Time;durP1;ratioP1;P1;durP2;ratioP2;P2;SDS_P1;SDS_P2;PMS_P1;PMS_P2;Temp;Humidity;BMP_temperature;BMP_pressure;BME280_temperature;BME280_humidity;BME280_pressure;Samples;Min_cycle;Max_cycle;Signal;HPM_P1;HPM_P2
2023/04/24 00:01:29;;;;;;;;;;;;;;;;;;5113201;28;1956;-39
2023/04/24 00:03:59;;;;;;;;;;;;;;;;;;5113236;28;1944;-39
2023/04/24 00:06:36;;;;;;;;;;;;;;;;;;5112972;28;1966;-39
2023/04/24 00:09:04;;;;;;;;;;;;;;;;;;5112989;28;2018;-39
2023/04/24 00:11:31;;;;;;;;;;;;;;;;;;5113036;28;2017;-39
2023/04/24 00:13:59;;;;;;;;;;;;;;;;;;5112875;28;1944;-39
2023/04/24 00:16:26;;;;;;;;;;;;;;;;;;5112665;28;2110;-39
2023/04/24 00:18:53;;;;;;;;;;;;;;;;;;5113058;28;1906;-40
2023/04/24 00:21:21;;;;;;;;;;;;;;;;;;5097207;28;1793;-39
2023/04/24 00:23:48;;;;;;;;;;;;;;;;;;5092077;28;1964;-39
2023/04/24 00:26:18;;;;;;;;;;;;;;;;;;5092513;28;2008;-39
2023/04/24 00:28:45;;;;;;;;;;;;;;;;;;5092047;28;1845;-39
2023/04/24 00:31:12;;;;;;;;;;;;;;;;;;5075275;28;2111;-39
2023/04/24 00:33:39;;;;;;;;;;;;;;;;;;5112004;28;2004;-41
2023/04/24 00:36:07;;;;;;;;;;;;;;;;;;5112244;28;1938;-40
2023/04/24 00:38:34;;;;;;;;;;;;;;;;;;5094057;28;1954;-39
2023/04/24 00:41:03;;;;;;;;;;;;;;;;;;5112258;28;2000;-39
2023/04/24 00:43:30;;;;;;;;;;;;;;;;;;5094125;28;1923;-39
2023/04/24 00:45:59;;;;;;;;;;;;;;;;;;5111930;28;1991;-39
2023/04/24 00:48:26;;;;;;;;;;;;;;;;;;5094016;28;1882;-40
2023/04/24 00:50:53;;;;;;;;;;;;;;;;;;5112134;28;1817;-40
2023/04/24 00:53:21;;;;;;;;;;;;;;;;;;5107925;28;1948;-39
2023/04/24 00:55:48;;;;;;;;;;;;;;;;;;5092030;28;2116;-40
2023/04/24 00:58:15;;;;;;;;;;;;;;;;;;5091569;28;2098;-46
2023/04/24 01:00:43;;;;;;;;;;;;;;;;;;5091818;28;1994;-39
2023/04/24 01:03:11;;;;;;;;;;;;;;;;;;5090508;28;1797;-39
2023/04/24 01:05:38;;;;;;;;;;;;;;;;;;5091327;28;1982;-40
2023/04/24 01:08:05;;;;;;;;;;;;;;;;;;5091742;28;1956;-39
2023/04/24 01:10:33;;;;;;;;;;;;;;;;;;5091479;28;2037;-40
2023/04/24 01:13:00;;;;;;;;;;;;;;;;;;5092024;28;2196;-39
2023/04/24 01:15:27;;;;;;;;;;;;;;;;;;5091627;28;1954;-40
2023/04/24 01:17:55;;;;;;;;;;;;;;;;;;5091180;28;1971;-39
2023/04/24 01:20:24;;;;;;;;;;;;;;;;;;5091405;28;2116;-39
2023/04/24 01:22:52;;;;;;;;;;;;;;;;;;5091520;28;2158;-43
2023/04/24 01:25:22;;;;;;;;;;;;;;;;;;5091334;28;2027;-39
2023/04/24 01:27:50;;;;;;;;;;;;;;;;;;5091038;28;1985;-39
2023/04/24 01:30:17;;;;;;;;;;;;;;;;;;5091120;28;2075;-39
2023/04/24 01:32:44;;;;;;;;;;;;;;;;;;5089743;28;1846;-39
2023/04/24 01:35:11;;;;;;;;;;;;;;;;;;5073165;28;2352;-39
2023/04/24 01:37:39;;;;;;;;;;;;;;;;;;5089691;28;2033;-40
2023/04/24 01:40:07;;;;;;;;;;;;;;;;;;5090958;28;1940;-48
2023/04/24 01:42:34;;;;;;;;;;;;;;;;;;5093319;28;1961;-40
2023/04/24 01:45:03;;;;;;;;;;;;;;;;;;5095315;28;1839;-39
2023/04/24 01:47:30;;;;;;;;;;;;;;;;;;5095410;28;1944;-39
2023/04/24 01:49:58;;;;;;;;;;;;;;;;;;5095623;28;2006;-39
2023/04/24 01:52:25;;;;;;;;;;;;;;;;;;5095111;28;1885;-39
2023/04/24 01:54:53;;;;;;;;;;;;;;;;;;5112238;28;1900;-39
2023/04/24 01:57:20;;;;;;;;;;;;;;;;;;5115666;28;2166;-40
2023/04/24 01:59:47;;;;;;;;;;;;;;;;;;5115087;28;1935;-39
2023/04/24 02:02:14;;;;;;;;;;;;;;;;;;5097353;28;1943;-45
2023/04/24 02:04:41;;;;;;;;;;;;;;;;;;5097055;28;2055;-40
2023/04/24 02:07:09;;;;;;;;;;;;;;;;;;5115311;28;1923;-55
2023/04/24 02:09:36;;;;;;;;;;;;;;;;;;5115240;28;1897;-39
2023/04/24 02:12:04;;;;;;;;;;;;;;;;;;5096929;28;1952;-39
2023/04/24 02:14:31;;;;;;;;;;;;;;;;;;5115427;28;1945;-39
2023/04/24 02:16:58;;;;;;;;;;;;;;;;;;5093535;28;2073;-39
2023/04/24 02:19:25;;;;;;;;;;;;;;;;;;5094961;28;1878;-38
2023/04/24 02:21:52;;;;;;;;;;;;;;;;;;5094585;28;1799;-40
2023/04/24 02:24:19;;;;;;;;;;;;;;;;;;5094690;28;1911;-39
2023/04/24 02:26:47;;;;;;;;;;;;;;;;;;5094668;28;2014;-42
2023/04/24 02:29:15;;;;;;;;;;;;;;;;;;5094414;28;2044;-40
2023/04/24 02:31:45;;;;;;;;;;;;;;;;;;5094658;28;1939;-42
2023/04/24 02:34:13;;;;;;;;;;;;;;;;;;5076184;28;2364;-44
2023/04/24 02:36:41;;;;;;;;;;;;;;;;;;5094079;28;2086;-39
2023/04/24 02:39:08;;;;;;;;;;;;;;;;;;5094129;28;1832;-47
2023/04/24 02:41:36;;;;;;;;;;;;;;;;;;5094346;28;1893;-43
2023/04/24 02:44:03;;;;;;;;;;;;;;;;;;5094611;28;1976;-39
2023/04/24 02:46:30;;;;;;;;;;;;;;;;;;5094419;28;1960;-43
2023/04/24 02:48:57;;;;;;;;;;;;;;;;;;5093983;28;1988;-40
2023/04/24 02:51:25;;;;;;;;;;;;;;;;;;5094133;28;1726;-38
2023/04/24 02:53:52;;;;;;;;;;;;;;;;;;5075185;28;2003;-39
2023/04/24 02:56:19;;;;;;;;;;;;;;;;;;5094098;28;1874;-45
2023/04/24 02:58:46;;;;;;;;;;;;;;;;;;5093958;28;2030;-41
2023/04/24 03:01:14;;;;;;;;;;;;;;;;;;5094060;28;2052;-39
2023/04/24 03:03:41;;;;;;;;;;;;;;;;;;5075570;28;2147;-39
2023/04/24 03:06:09;;;;;;;;;;;;;;;;;;5075633;28;2254;-40
2023/04/24 03:08:36;;;;;;;;;;;;;;;;;;5093996;28;2002;-39
2023/04/24 03:11:03;;;;;;;;;;;;;;;;;;5093719;28;1800;-49
2023/04/24 03:13:30;;;;;;;;;;;;;;;;;;5093503;28;1890;-39
2023/04/24 03:15:57;;;;;;;;;;;;;;;;;;5093442;28;2057;-40
2023/04/24 03:18:26;;;;;;;;;;;;;;;;;;5093479;28;1976;-39
2023/04/24 03:20:53;;;;;;;;;;;;;;;;;;5075241;28;1995;-39
2023/04/24 03:23:21;;;;;;;;;;;;;;;;;;5075232;28;1946;-39
2023/04/24 03:25:48;;;;;;;;;;;;;;;;;;5080534;28;2093;-39
2023/04/24 03:28:19;;;;;;;;;;;;;;;;;;5113760;28;2059;-39
2023/04/24 03:30:58;;;;;;;;;;;;;;;;;;5095009;28;2032;-39
2023/04/24 03:33:31;;;;;;;;;;;;;;;;;;5095215;28;2591;-39
2023/04/24 03:36:00;;;;;;;;;;;;;;;;;;5112939;28;2017;-39
2023/04/24 03:38:35;;;;;;;;;;;;;;;;;;5095331;28;2035;-39
2023/04/24 03:41:19;;;;;;;;;;;;;;;;;;5113689;28;1849;-40
2023/04/24 03:43:50;;;;;;;;;;;;;;;;;;5095208;28;1790;-39
2023/04/24 03:46:17;;;;;;;;;;;;;;;;;;5094907;28;2386;-39
2023/04/24 03:48:51;;;;;;;;;;;;;;;;;;5095094;28;2168;-39
2023/04/24 03:51:27;;;;;;;;;;;;;;;;;;5095082;28;2123;-41
2023/04/24 03:54:00;;;;;;;;;;;;;;;;;;5094742;28;2054;-39
2023/04/24 03:56:30;;;;;;;;;;;;;;;;;;5094747;28;2000;-41
2023/04/24 03:58:58;;;;;;;;;;;;;;;;;;5113083;28;2027;-39
2023/04/24 04:01:25;;;;;;;;;;;;;;;;;;5094959;28;2474;-39
2023/04/24 04:03:58;;;;;;;;;;;;;;;;;;5094270;28;2026;-39
2023/04/24 04:06:27;;;;;;;;;;;;;;;;;;5094406;28;2002;-39
2023/04/24 04:08:58;;;;;;;;;;;;;;;;;;5094663;28;2042;-39
2023/04/24 04:11:25;;;;;;;;;;;;;;;;;;5094864;28;1962;-39
2023/04/24 04:13:52;;;;;;;;;;;;;;;;;;5112944;28;2110;-39
2023/04/24 04:16:21;;;;;;;;;;;;;;;;;;5094503;28;2595;-40
2023/04/24 04:18:51;;;;;;;;;;;;;;;;;;5094521;28;2314;-39
2023/04/24 04:21:19;;;;;;;;;;;;;;;;;;5094321;28;2122;-40
2023/04/24 04:23:53;;;;;;;;;;;;;;;;;;5094395;28;1872;-41
2023/04/24 04:26:32;;;;;;;;;;;;;;;;;;5094548;28;1772;-40
2023/04/24 04:29:06;;;;;;;;;;;;;;;;;;5113060;28;2102;-41
2023/04/24 04:31:38;;;;;;;;;;;;;;;;;;5094566;28;1966;-39
2023/04/24 04:34:09;;;;;;;;;;;;;;;;;;5094454;28;1833;-40
2023/04/24 04:36:39;;;;;;;;;;;;;;;;;;5094354;28;2402;-42
2023/04/24 04:39:29;;;;;;;;;;;;;;;;;;5104544;28;1869;-41
2023/04/24 04:42:03;;;;;;;;;;;;;;;;;;5112530;28;2144;-40
2023/04/24 04:44:38;;;;;;;;;;;;;;;;;;5112587;28;2017;-38
2023/04/24 04:47:08;;;;;;;;;;;;;;;;;;5094193;28;2090;-40
2023/04/24 04:49:38;;;;;;;;;;;;;;;;;;5093992;28;2049;-40
2023/04/24 04:52:10;;;;;;;;;;;;;;;;;;5094325;28;1855;-39
2023/04/24 04:54:37;;;;;;;;;;;;;;;;;;5079031;28;1858;-44
2023/04/24 04:57:05;;;;;;;;;;;;;;;;;;5073398;28;2034;-39
2023/04/24 04:59:35;;;;;;;;;;;;;;;;;;5073282;28;2318;-40
2023/04/24 05:02:07;;;;;;;;;;;;;;;;;;5073627;28;2019;-57
2023/04/24 05:04:35;;;;;;;;;;;;;;;;;;5073412;28;2250;-52
2023/04/24 05:07:03;;;;;;;;;;;;;;;;;;5091769;28;1939;-39
2023/04/24 05:09:32;;;;;;;;;;;;;;;;;;5073372;28;1941;-53
2023/04/24 05:12:02;;;;;;;;;;;;;;;;;;5073462;28;1931;-48
2023/04/24 05:14:34;;;;;;;;;;;;;;;;;;5075485;28;6144;-40
2023/04/24 05:17:02;;;;;;;;;;;;;;;;;;5073424;28;1799;-45
2023/04/24 05:19:35;;;;;;;;;;;;;;;;;;5073157;28;2043;-39
2023/04/24 05:22:04;;;;;;;;;;;;;;;;;;5085731;28;2249;-41
2023/04/24 05:24:33;;;;;;;;;;;;;;;;;;5073057;28;2077;-44
2023/04/24 05:27:13;;;;;;;;;;;;;;;;;;5073402;28;1928;-41
2023/04/24 05:29:40;;;;;;;;;;;;;;;;;;5091441;28;1978;-42
2023/04/24 05:32:08;;;;;;;;;;;;;;;;;;5072921;28;1966;-40
2023/04/24 05:34:36;;;;;;;;;;;;;;;;;;5090933;28;1965;-40
2023/04/24 05:37:07;;;;;;;;;;;;;;;;;;5091358;28;1918;-40
2023/04/24 05:39:35;;;;;;;;;;;;;;;;;;5072549;28;2039;-40
2023/04/24 05:42:04;;;;;;;;;;;;;;;;;;5072748;28;1878;-40
2023/04/24 05:44:31;;;;;;;;;;;;;;;;;;5090773;28;1721;-39
2023/04/24 05:46:58;;;;;;;;;;;;;;;;;;5056360;28;2094;-40
2023/04/24 05:49:26;;;;;;;;;;;;;;;;;;5073167;28;2041;-40
2023/04/24 05:51:55;;;;;;;;;;;;;;;;;;5072881;28;1894;-40
2023/04/24 05:54:22;;;;;;;;;;;;;;;;;;5072635;28;2092;-55
2023/04/24 05:56:50;;;;;;;;;;;;;;;;;;5072909;28;1914;-48
2023/04/24 05:59:28;;;;;;;;;;;;;;;;;;5072825;28;2009;-43
2023/04/24 06:01:57;;;;;;;;;;;;;;;;;;5073063;28;1879;-47
2023/04/24 06:04:24;;;;;;;;;;;;;;;;;;5072845;28;2133;-40
2023/04/24 06:06:55;;;;;;;;;;;;;;;;;;5072615;28;1876;-40
2023/04/24 06:09:23;;;;;;;;;;;;;;;;;;5072713;28;2143;-40
2023/04/24 06:11:53;;;;;;;;;;;;;;;;;;5090759;28;2042;-41
2023/04/24 06:14:24;;;;;;;;;;;;;;;;;;5072487;28;2044;-40
2023/04/24 06:17:10;;;;;;;;;;;;;;;;;;5090849;28;2049;-41
2023/04/24 06:19:40;;;;;;;;;;;;;;;;;;5072632;28;2097;-49
2023/04/24 06:22:08;;;;;;;;;;;;;;;;;;5072563;28;1981;-56
2023/04/24 06:24:36;;;;;;;;;;;;;;;;;;5090632;28;2053;-40
2023/04/24 06:27:03;;;;;;;;;;;;;;;;;;5101091;28;1878;-41
2023/04/24 06:29:33;;;;;;;;;;;;;;;;;;5096623;28;1966;-40
2023/04/24 06:32:00;;;;;;;;;;;;;;;;;;5114678;28;2078;-45
2023/04/24 06:34:27;;;;;;;;;;;;;;;;;;5114712;28;2104;-40
2023/04/24 06:36:55;;;;;;;;;;;;;;;;;;5114562;28;1949;-40
2023/04/24 06:39:22;;;;;;;;;;;;;;;;;;5114698;28;2068;-39
2023/04/24 06:41:52;;;;;;;;;;;;;;;;;;5114688;28;1931;-40
2023/04/24 06:44:19;;;;;;;;;;;;;;;;;;5114537;28;2254;-40
2023/04/24 06:46:46;;;;;;;;;;;;;;;;;;5114715;28;1985;-40
2023/04/24 06:49:15;;;;;;;;;;;;;;;;;;5114384;28;2101;-40
2023/04/24 06:51:43;;;;;;;;;;;;;;;;;;5096536;28;1889;-40
2023/04/24 06:54:10;;;;;;;;;;;;;;;;;;5114621;28;2035;-40
2023/04/24 06:56:37;;;;;;;;;;;;;;;;;;5114350;28;2067;-40
2023/04/24 06:59:04;;;;;;;;;;;;;;;;;;5114291;28;1914;-40
2023/04/24 07:01:31;;;;;;;;;;;;;;;;;;5114272;28;2102;-40
2023/04/24 07:03:59;;;;;;;;;;;;;;;;;;5114046;28;1985;-41
2023/04/24 07:06:27;;;;;;;;;;;;;;;;;;5114522;28;1857;-40
2023/04/24 07:08:55;;;;;;;;;;;;;;;;;;5114348;28;1899;-40
2023/04/24 07:11:23;;;;;;;;;;;;;;;;;;5114232;28;2016;-54
2023/04/24 07:13:50;;;;;;;;;;;;;;;;;;5114260;28;1949;-39
2023/04/24 07:16:17;;;;;;;;;;;;;;;;;;5114009;28;1993;-40
2023/04/24 07:18:45;;;;;;;;;;;;;;;;;;5114239;28;2284;-40
2023/04/24 07:21:12;;;;;;;;;;;;;;;;;;5113978;28;1830;-40
2023/04/24 07:23:41;;;;;;;;;;;;;;;;;;5114182;28;2034;-41
2023/04/24 07:26:08;;;;;;;;;;;;;;;;;;5113739;28;1820;-57
2023/04/24 07:28:35;;;;;;;;;;;;;;;;;;5113966;28;2083;-40
2023/04/24 07:31:02;;;;;;;;;;;;;;;;;;5113565;28;1777;-40
2023/04/24 07:33:30;;;;;;;;;;;;;;;;;;5113752;28;1977;-40
2023/04/24 07:35:57;;;;;;;;;;;;;;;;;;5113587;28;2041;-40
2023/04/24 07:38:25;;;;;;;;;;;;;;;;;;5094830;28;2121;-40
2023/04/24 07:40:54;;;;;;;;;;;;;;;;;;5112858;28;2049;-40
2023/04/24 07:43:21;;;;;;;;;;;;;;;;;;5114053;28;1930;-40
2023/04/24 07:45:49;;;;;;;;;;;;;;;;;;5113471;28;2057;-47
2023/04/24 07:48:17;;;;;;;;;;;;;;;;;;5113391;28;2097;-43
2023/04/24 07:50:46;;;;;;;;;;;;;;;;;;5113406;28;1974;-44
2023/04/24 07:53:14;;;;;;;;;;;;;;;;;;5110287;28;2035;-40
2023/04/24 07:55:41;;;;;;;;;;;;;;;;;;5093563;28;2107;-40
2023/04/24 07:58:08;;;;;;;;;;;;;;;;;;5093059;28;2155;-60
2023/04/24 08:00:35;;;;;;;;;;;;;;;;;;5107380;28;1924;-40
2023/04/24 08:03:02;;;;;;;;;;;;;;;;;;5112964;28;2289;-40
2023/04/24 08:05:29;;;;;;;;;;;;;;;;;;5113061;28;2132;-40
2023/04/24 08:07:56;;;;;;;;;;;;;;;;;;5113124;28;2240;-40
2023/04/24 08:10:24;;;;;;;;;;;;;;;;;;5113439;28;1870;-40
2023/04/24 08:12:51;;;;;;;;;;;;;;;;;;5094934;28;2582;-40
2023/04/24 08:15:18;;;;;;;;;;;;;;;;;;5112736;28;1992;-42
2023/04/24 08:17:45;;;;;;;;;;;;;;;;;;5112230;28;2080;-42
2023/04/24 08:20:14;;;;;;;;;;;;;;;;;;5112964;28;2020;-40
2023/04/24 08:22:41;;;;;;;;;;;;;;;;;;5112886;28;1872;-42
2023/04/24 08:25:10;;;;;;;;;;;;;;;;;;5112590;28;2109;-42
2023/04/24 08:27:38;;;;;;;;;;;;;;;;;;5112987;28;2059;-41
2023/04/24 08:30:06;;;;;;;;;;;;;;;;;;5111440;28;1807;-48
2023/04/24 08:32:33;;;;;;;;;;;;;;;;;;5112107;28;2032;-42
2023/04/24 08:35:00;;;;;;;;;;;;;;;;;;5111768;28;1947;-41
2023/04/24 08:37:27;;;;;;;;;;;;;;;;;;5111811;28;2172;-49
2023/04/24 08:39:54;;;;;;;;;;;;;;;;;;5112779;28;1974;-41
2023/04/24 08:42:22;;;;;;;;;;;;;;;;;;5112564;28;1713;-43
2023/04/24 08:44:49;;;;;;;;;;;;;;;;;;5112321;28;2114;-41
2023/04/24 08:47:16;;;;;;;;;;;;;;;;;;5112324;28;1968;-40
2023/04/24 08:49:45;;;;;;;;;;;;;;;;;;5112425;28;1967;-41
2023/04/24 08:52:12;;;;;;;;;;;;;;;;;;5111565;28;1943;-43
2023/04/24 08:54:43;;;;;;;;;;;;;;;;;;5112289;28;1853;-40
2023/04/24 08:57:13;;;;;;;;;;;;;;;;;;5112084;28;1798;-41
2023/04/24 08:59:41;;;;;;;;;;;;;;;;;;5112277;28;2095;-40
2023/04/24 09:02:10;;;;;;;;;;;;;;;;;;5112266;28;1979;-40
2023/04/24 09:04:37;;;;;;;;;;;;;;;;;;5112157;28;1934;-50
2023/04/24 09:07:06;;;;;;;;;;;;;;;;;;5112047;28;1670;-41
2023/04/24 09:09:33;;;;;;;;;;;;;;;;;;5111972;28;1911;-41
2023/04/24 09:12:00;;;;;;;;;;;;;;;;;;5112233;28;1954;-40
2023/04/24 09:14:31;;;;;;;;;;;;;;;;;;5111766;28;2038;-41
2023/04/24 09:16:58;;;;;;;;;;;;;;;;;;5112039;28;1995;-41
2023/04/24 09:19:26;;;;;;;;;;;;;;;;;;5111863;28;1914;-40
2023/04/24 09:21:53;;;;;;;;;;;;;;;;;;5111651;28;2016;-42
2023/04/24 09:24:24;;;;;;;;;;;;;;;;;;5111941;28;1772;-41
2023/04/24 09:27:03;;;;;;;;;;;;;;;;;;5111485;28;1992;-40
2023/04/24 09:29:32;;;;;;;;;;;;;;;;;;5111374;28;1886;-43
2023/04/24 09:32:17;;;;;;;;;;;;;;;;;;5111652;28;1831;-41
2023/04/24 09:34:46;;;;;;;;;;;;;;;;;;5111779;28;1745;-42
2023/04/24 09:37:29;;;;;;;;;;;;;;;;;;5111662;28;2056;-40
2023/04/24 09:40:12;;;;;;;;;;;;;;;;;;5111855;28;2076;-42
2023/04/24 09:42:40;;;;;;;;;;;;;;;;;;5111693;28;1884;-46
2023/04/24 09:45:11;;;;;;;;;;;;;;;;;;5111721;28;1851;-46
2023/04/24 09:47:41;;;;;;;;;;;;;;;;;;5111451;28;2327;-40
2023/04/24 09:50:17;;;;;;;;;;;;;;;;;;5111343;28;1939;-41
2023/04/24 09:52:46;;;;;;;;;;;;;;;;;;5111335;28;1921;-42
2023/04/24 09:55:17;;;;;;;;;;;;;;;;;;5091776;28;1822;-41
2023/04/24 09:58:10;;;;;;;;;;;;;;;;;;5090766;28;2018;-40
2023/04/24 10:00:37;;;;;;;;;;;;;;;;;;5088294;28;2064;-57
2023/04/24 10:03:05;;;;;;;;;;;;;;;;;;5092423;28;1986;-45
2023/04/24 10:05:34;;;;;;;;;;;;;;;;;;5094809;28;2083;-59
2023/04/24 10:08:08;;;;;;;;;;;;;;;;;;5094930;28;2057;-42
2023/04/24 10:10:42;;;;;;;;;;;;;;;;;;5094705;28;2232;-41
2023/04/24 10:13:10;;;;;;;;;;;;;;;;;;5094957;28;1870;-41
2023/04/24 10:15:38;;;;;;;;;;;;;;;;;;5094967;28;2082;-40
2023/04/24 10:18:06;;;;;;;;;;;;;;;;;;5094643;28;2095;-41
2023/04/24 10:20:35;;;;;;;;;;;;;;;;;;5095149;28;2095;-41
2023/04/24 10:23:03;;;;;;;;;;;;;;;;;;5102710;28;2044;-42
2023/04/24 10:25:31;;;;;;;;;;;;;;;;;;5115431;28;1859;-41
2023/04/24 10:27:59;;;;;;;;;;;;;;;;;;5114953;28;2009;-41
2023/04/24 10:30:27;;;;;;;;;;;;;;;;;;5115053;28;1997;-40
2023/04/24 10:32:55;;;;;;;;;;;;;;;;;;5115137;28;2136;-43
2023/04/24 10:35:26;;;;;;;;;;;;;;;;;;5114820;28;1852;-41
2023/04/24 10:37:56;;;;;;;;;;;;;;;;;;5105629;28;1853;-40
2023/04/24 10:40:29;;;;;;;;;;;;;;;;;;5094508;28;2065;-41
2023/04/24 10:42:57;;;;;;;;;;;;;;;;;;5094499;28;1957;-40
2023/04/24 10:45:25;;;;;;;;;;;;;;;;;;5094522;28;1692;-47
2023/04/24 10:48:02;;;;;;;;;;;;;;;;;;5094108;28;1888;-41
2023/04/24 10:50:50;;;;;;;;;;;;;;;;;;5094611;28;2462;-52
2023/04/24 10:53:21;;;;;;;;;;;;;;;;;;5093953;28;1940;-41
2023/04/24 10:55:48;;;;;;;;;;;;;;;;;;5094306;28;1865;-62
2023/04/24 10:58:24;;;;;;;;;;;;;;;;;;5094169;28;2050;-41
2023/04/24 11:00:58;;;;;;;;;;;;;;;;;;5094231;28;1941;-44
2023/04/24 11:03:26;;;;;;;;;;;;;;;;;;5093905;28;1989;-40
2023/04/24 11:05:55;;;;;;;;;;;;;;;;;;5094419;28;2102;-42
2023/04/24 11:08:27;;;;;;;;;;;;;;;;;;5093821;28;1865;-40
2023/04/24 11:10:57;;;;;;;;;;;;;;;;;;5094090;28;1863;-45
2023/04/24 11:13:25;;;;;;;;;;;;;;;;;;5093688;28;1927;-40
2023/04/24 11:16:11;;;;;;;;;;;;;;;;;;5093690;28;2358;-42
2023/04/24 11:18:39;;;;;;;;;;;;;;;;;;5093627;28;2137;-41
2023/04/24 11:21:16;;;;;;;;;;;;;;;;;;5093718;28;2144;-40
2023/04/24 11:23:44;;;;;;;;;;;;;;;;;;5093560;28;1940;-40
2023/04/24 11:26:12;;;;;;;;;;;;;;;;;;5093658;28;1997;-41
2023/04/24 11:28:46;;;;;;;;;;;;;;;;;;5093365;28;1960;-42
2023/04/24 11:31:32;;;;;;;;;;;;;;;;;;5093505;28;1789;-41
2023/04/24 11:34:05;;;;;;;;;;;;;;;;;;5093591;28;1918;-41
2023/04/24 11:36:33;;;;;;;;;;;;;;;;;;5101691;28;1850;-41
2023/04/24 11:39:00;;;;;;;;;;;;;;;;;;5113462;28;1964;-41
2023/04/24 11:41:28;;;;;;;;;;;;;;;;;;5113701;28;2095;-41
2023/04/24 11:43:55;;;;;;;;;;;;;;;;;;5113532;28;1987;-43
2023/04/24 11:46:27;;;;;;;;;;;;;;;;;;5113750;28;1982;-46
2023/04/24 11:48:54;;;;;;;;;;;;;;;;;;5113511;28;1918;-40
2023/04/24 11:51:22;;;;;;;;;;;;;;;;;;5113354;28;2076;-43
2023/04/24 11:53:49;;;;;;;;;;;;;;;;;;5105455;28;2053;-40
2023/04/24 11:56:24;;;;;;;;;;;;;;;;;;5092732;28;2128;-62
2023/04/24 11:58:57;;;;;;;;;;;;;;;;;;5093026;28;2002;-41
2023/04/24 12:01:24;;;;;;;;;;;;;;;;;;5092811;28;1933;-50
2023/04/24 12:03:59;;;;;;;;;;;;;;;;;;5092879;28;2136;-47
2023/04/24 12:06:27;;;;;;;;;;;;;;;;;;5092753;28;2020;-40
2023/04/24 12:08:55;;;;;;;;;;;;;;;;;;5092929;28;1823;-48
2023/04/24 12:11:27;;;;;;;;;;;;;;;;;;5092659;28;2055;-40
2023/04/24 12:13:54;;;;;;;;;;;;;;;;;;5092793;28;1872;-40
2023/04/24 12:16:22;;;;;;;;;;;;;;;;;;5092417;28;2179;-40
2023/04/24 12:18:51;;;;;;;;;;;;;;;;;;5092732;28;2137;-45
2023/04/24 12:21:19;;;;;;;;;;;;;;;;;;5092557;28;2042;-40
2023/04/24 12:23:48;;;;;;;;;;;;;;;;;;5092368;28;2209;-40
2023/04/24 12:26:17;;;;;;;;;;;;;;;;;;5091484;28;2014;-40
2023/04/24 12:28:46;;;;;;;;;;;;;;;;;;5092318;28;1961;-40
2023/04/24 12:31:15;;;;;;;;;;;;;;;;;;5092276;28;2165;-44
2023/04/24 12:33:43;;;;;;;;;;;;;;;;;;5092672;28;2016;-41
2023/04/24 12:36:12;;;;;;;;;;;;;;;;;;5092473;28;2031;-46
2023/04/24 12:38:44;;;;;;;;;;;;;;;;;;5092458;28;2059;-41
2023/04/24 12:41:14;;;;;;;;;;;;;;;;;;5092318;28;1909;-40
2023/04/24 12:43:51;;;;;;;;;;;;;;;;;;5096683;28;1926;-40
2023/04/24 12:46:19;;;;;;;;;;;;;;;;;;5112223;28;2005;-42
2023/04/24 12:48:48;;;;;;;;;;;;;;;;;;5112277;28;1877;-40
2023/04/24 12:51:15;;;;;;;;;;;;;;;;;;5112261;28;1972;-40
2023/04/24 12:53:42;;;;;;;;;;;;;;;;;;5112268;28;2012;-40
2023/04/24 12:56:09;;;;;;;;;;;;;;;;;;5112558;28;2009;-41
2023/04/24 12:58:36;;;;;;;;;;;;;;;;;;5112213;28;2026;-40
2023/04/24 13:01:04;;;;;;;;;;;;;;;;;;5112337;28;2330;-40
2023/04/24 13:03:31;;;;;;;;;;;;;;;;;;5112081;28;2092;-41
2023/04/24 13:05:58;;;;;;;;;;;;;;;;;;5112076;28;2035;-40
2023/04/24 13:08:25;;;;;;;;;;;;;;;;;;5111918;28;2100;-40
2023/04/24 13:10:53;;;;;;;;;;;;;;;;;;5112140;28;2011;-51
2023/04/24 13:13:20;;;;;;;;;;;;;;;;;;5112153;28;1837;-60
2023/04/24 13:15:48;;;;;;;;;;;;;;;;;;5112135;28;1932;-40
2023/04/24 13:18:15;;;;;;;;;;;;;;;;;;5111982;28;2051;-40
2023/04/24 13:20:42;;;;;;;;;;;;;;;;;;5111995;28;1988;-40
2023/04/24 13:23:10;;;;;;;;;;;;;;;;;;5112017;28;1966;-50
2023/04/24 13:25:38;;;;;;;;;;;;;;;;;;5111845;28;2079;-40
2023/04/24 13:28:06;;;;;;;;;;;;;;;;;;5111620;28;1925;-41
2023/04/24 13:30:33;;;;;;;;;;;;;;;;;;5111690;28;2004;-58
2023/04/24 13:33:03;;;;;;;;;;;;;;;;;;5111732;28;1858;-42
2023/04/24 13:35:30;;;;;;;;;;;;;;;;;;5111571;28;1955;-42
2023/04/24 13:37:58;;;;;;;;;;;;;;;;;;5111607;28;2033;-40
2023/04/24 13:40:25;;;;;;;;;;;;;;;;;;5111521;28;1990;-40
2023/04/24 13:42:52;;;;;;;;;;;;;;;;;;5111645;28;2011;-55
2023/04/24 13:45:20;;;;;;;;;;;;;;;;;;5111601;28;1774;-40
2023/04/24 13:47:51;;;;;;;;;;;;;;;;;;5111222;28;1995;-59
2023/04/24 13:50:18;;;;;;;;;;;;;;;;;;5111319;28;1978;-40
2023/04/24 13:52:45;;;;;;;;;;;;;;;;;;5111652;28;2159;-40
2023/04/24 13:55:13;;;;;;;;;;;;;;;;;;5091859;28;1974;-39
2023/04/24 13:57:40;;;;;;;;;;;;;;;;;;5091243;28;2109;-40
2023/04/24 14:00:10;;;;;;;;;;;;;;;;;;5092946;28;2162;-42
2023/04/24 14:02:37;;;;;;;;;;;;;;;;;;5111361;28;1877;-41
2023/04/24 14:05:06;;;;;;;;;;;;;;;;;;5111255;28;1934;-39
2023/04/24 14:07:33;;;;;;;;;;;;;;;;;;5111753;28;1888;-40
2023/04/24 14:10:03;;;;;;;;;;;;;;;;;;5111175;28;2072;-53
2023/04/24 14:12:30;;;;;;;;;;;;;;;;;;5111401;28;1757;-39
2023/04/24 14:14:57;;;;;;;;;;;;;;;;;;5111239;28;1995;-40
2023/04/24 14:17:24;;;;;;;;;;;;;;;;;;5111049;28;1924;-44
2023/04/24 14:19:56;;;;;;;;;;;;;;;;;;5110632;28;2005;-46
2023/04/24 14:22:23;;;;;;;;;;;;;;;;;;5111278;28;1951;-41
2023/04/24 14:24:50;;;;;;;;;;;;;;;;;;5111034;28;2167;-39
2023/04/24 14:27:17;;;;;;;;;;;;;;;;;;5111177;28;1967;-40
2023/04/24 14:29:45;;;;;;;;;;;;;;;;;;5099275;28;1820;-52
2023/04/24 14:32:14;;;;;;;;;;;;;;;;;;5090758;28;2086;-40
2023/04/24 14:34:42;;;;;;;;;;;;;;;;;;5090513;28;1942;-40
2023/04/24 14:37:09;;;;;;;;;;;;;;;;;;5090579;28;1903;-57
2023/04/24 14:39:36;;;;;;;;;;;;;;;;;;5090716;28;2220;-39
2023/04/24 14:42:03;;;;;;;;;;;;;;;;;;5108816;28;1962;-40
2023/04/24 14:44:30;;;;;;;;;;;;;;;;;;5111072;28;1978;-40
2023/04/24 14:46:58;;;;;;;;;;;;;;;;;;5110705;28;2221;-39
2023/04/24 14:49:25;;;;;;;;;;;;;;;;;;5111542;28;1362;-39
2023/04/24 14:51:52;;;;;;;;;;;;;;;;;;5112822;28;2052;-40
2023/04/24 14:54:22;;;;;;;;;;;;;;;;;;5100197;28;2197;-39
2023/04/24 14:56:50;;;;;;;;;;;;;;;;;;5092224;28;2137;-39
2023/04/24 14:59:17;;;;;;;;;;;;;;;;;;5092389;28;2052;-38
2023/04/24 15:01:44;;;;;;;;;;;;;;;;;;5092031;28;1985;-40
2023/04/24 15:04:12;;;;;;;;;;;;;;;;;;5092554;28;1995;-39
2023/04/24 15:06:39;;;;;;;;;;;;;;;;;;5093861;28;1852;-40
2023/04/24 15:09:06;;;;;;;;;;;;;;;;;;5093553;28;1928;-40
2023/04/24 15:11:33;;;;;;;;;;;;;;;;;;5099734;28;1842;-40
2023/04/24 15:14:00;;;;;;;;;;;;;;;;;;5114112;28;1975;-39
2023/04/24 15:16:27;;;;;;;;;;;;;;;;;;5113691;28;1884;-41
2023/04/24 15:18:56;;;;;;;;;;;;;;;;;;5114224;28;2018;-39
2023/04/24 15:21:24;;;;;;;;;;;;;;;;;;5113786;28;2098;-40
2023/04/24 15:23:51;;;;;;;;;;;;;;;;;;5114204;28;2047;-40
2023/04/24 15:26:18;;;;;;;;;;;;;;;;;;5113964;28;1718;-40
2023/04/24 15:28:48;;;;;;;;;;;;;;;;;;5113678;28;2040;-40
2023/04/24 15:31:16;;;;;;;;;;;;;;;;;;5113942;28;1931;-39
2023/04/24 15:33:44;;;;;;;;;;;;;;;;;;5113922;28;2016;-39
2023/04/24 15:36:11;;;;;;;;;;;;;;;;;;5113864;28;1931;-39
2023/04/24 15:38:39;;;;;;;;;;;;;;;;;;5113634;28;2005;-39
2023/04/24 15:41:06;;;;;;;;;;;;;;;;;;5113531;28;2060;-39
2023/04/24 15:43:34;;;;;;;;;;;;;;;;;;5113635;28;2101;-40
2023/04/24 15:46:01;;;;;;;;;;;;;;;;;;5113555;28;1956;-42
2023/04/24 15:48:29;;;;;;;;;;;;;;;;;;5113229;28;1955;-40
2023/04/24 15:50:56;;;;;;;;;;;;;;;;;;5113418;28;2026;-39
2023/04/24 15:53:28;;;;;;;;;;;;;;;;;;5113177;28;2195;-39
2023/04/24 15:55:57;;;;;;;;;;;;;;;;;;5113439;28;1811;-39
2023/04/24 15:58:24;;;;;;;;;;;;;;;;;;5112622;28;2268;-38
2023/04/24 16:00:53;;;;;;;;;;;;;;;;;;5112538;28;1902;-38
2023/04/24 16:03:20;;;;;;;;;;;;;;;;;;5113607;28;1995;-39
2023/04/24 16:05:47;;;;;;;;;;;;;;;;;;5113344;28;2148;-40
2023/04/24 16:08:14;;;;;;;;;;;;;;;;;;5112987;28;1887;-39
2023/04/24 16:10:42;;;;;;;;;;;;;;;;;;5113131;28;2096;-39
2023/04/24 16:13:09;;;;;;;;;;;;;;;;;;5113092;28;1924;-38
2023/04/24 16:15:36;;;;;;;;;;;;;;;;;;5113140;28;1887;-49
2023/04/24 16:18:03;;;;;;;;;;;;;;;;;;5112662;28;2137;-41
2023/04/24 16:20:30;;;;;;;;;;;;;;;;;;5112963;28;2078;-39
2023/04/24 16:22:58;;;;;;;;;;;;;;;;;;5112969;28;2300;-39
2023/04/24 16:25:25;;;;;;;;;;;;;;;;;;5112892;28;2198;-40
2023/04/24 16:27:52;;;;;;;;;;;;;;;;;;5113036;28;1816;-44
2023/04/24 16:30:19;;;;;;;;;;;;;;;;;;5112628;28;2195;-39
2023/04/24 16:32:47;;;;;;;;;;;;;;;;;;5112678;28;2007;-39
2023/04/24 16:35:14;;;;;;;;;;;;;;;;;;5112688;28;1940;-39
2023/04/24 16:37:41;;;;;;;;;;;;;;;;;;5112640;28;2553;-40
2023/04/24 16:40:09;;;;;;;;;;;;;;;;;;5112560;28;2017;-43
2023/04/24 16:42:37;;;;;;;;;;;;;;;;;;5112324;28;1991;-38
2023/04/24 16:45:05;;;;;;;;;;;;;;;;;;5112457;28;2023;-40
2023/04/24 16:47:32;;;;;;;;;;;;;;;;;;5112086;28;1821;-38
2023/04/24 16:50:00;;;;;;;;;;;;;;;;;;5112431;28;1959;-39
2023/04/24 16:52:27;;;;;;;;;;;;;;;;;;5111774;28;2101;-39
2023/04/24 16:54:54;;;;;;;;;;;;;;;;;;5094964;28;2032;-39
2023/04/24 16:57:22;;;;;;;;;;;;;;;;;;5091913;28;1671;-39
2023/04/24 16:59:49;;;;;;;;;;;;;;;;;;5091775;28;1797;-39
2023/04/24 17:02:16;;;;;;;;;;;;;;;;;;5091476;28;1975;-39
2023/04/24 17:04:43;;;;;;;;;;;;;;;;;;5091822;28;2046;-39
2023/04/24 17:07:10;;;;;;;;;;;;;;;;;;5091413;28;1909;-40
2023/04/24 17:09:37;;;;;;;;;;;;;;;;;;5091905;28;2211;-38
2023/04/24 17:12:05;;;;;;;;;;;;;;;;;;5091331;28;1958;-40
2023/04/24 17:14:32;;;;;;;;;;;;;;;;;;5091360;28;1928;-39